Time;durP1;ratioP1;P1;durP2;ratioP2;P2;SDS_P1;SDS_P2;PMS_P1;PMS_P2;Temp;Humidity;BMP_temperature;BMP_pressure;BME280_temperature;BME280_humidity;BME280_pressure;Samples;Min_cycle;Max_cycle;Signal;HPM_P1;HPM_P2
2023/11/26 00:02:11;;;;;;;0.30;0.10;;;;;;;3.29;99.42;100085.75;5023933;28;20457;-57
2023/11/26 00:04:38;;;;;;;0.30;0.20;;;;;;;3.31;99.14;100080.50;5021654;28;20982;-56
2023/11/26 00:07:04;;;;;;;0.30;0.10;;;;;;;3.39;99.01;100084.84;5018316;28;20459;-57
2023/11/26 00:09:34;;;;;;;0.30;0.10;;;;;;;3.49;98.76;100091.81;5020388;28;20456;-57
2023/11/26 00:12:00;;;;;;;0.20;0.20;;;;;;;3.34;98.83;100083.97;5025023;28;20543;-57
2023/11/26 00:14:27;;;;;;;0.30;0.10;;;;;;;3.24;99.00;100092.75;5023850;28;20541;-57
2023/11/26 00:16:53;;;;;;;0.30;0.10;;;;;;;3.09;98.96;100095.41;5021589;28;20461;-56
2023/11/26 00:19:20;;;;;;;0.30;0.20;;;;;;;3.13;99.11;100103.28;5027253;28;20501;-56
2023/11/26 00:21:48;;;;;;;0.20;0.10;;;;;;;3.17;99.62;100093.66;5025858;28;20502;-57
2023/11/26 00:24:15;;;;;;;0.20;0.10;;;;;;;3.12;99.64;100093.66;5023099;28;20502;-57
2023/11/26 00:26:42;;;;;;;0.27;0.17;;;;;;;3.03;99.32;100093.69;5018128;28;20447;-57
2023/11/26 00:29:09;;;;;;;0.30;0.20;;;;;;;2.93;99.96;100097.19;5019179;28;20534;-56
2023/11/26 00:31:37;;;;;;;0.30;0.20;;;;;;;3.16;100.00;100105.91;5024435;28;20559;-57
2023/11/26 00:34:04;;;;;;;0.30;0.20;;;;;;;3.32;100.00;100100.63;5024468;28;20491;-58
2023/11/26 00:36:31;;;;;;;0.30;0.10;;;;;;;3.24;99.90;100101.50;5018732;28;20463;-57
2023/11/26 00:38:57;;;;;;;0.20;0.10;;;;;;;3.17;100.00;100097.16;5024954;28;20538;-57
2023/11/26 00:41:24;;;;;;;0.20;0.10;;;;;;;3.35;100.00;100105.88;5018111;28;20480;-57
2023/11/26 00:43:51;;;;;;;0.20;0.10;;;;;;;3.42;100.00;100110.22;5018837;28;20491;-57
2023/11/26 00:46:18;;;;;;;0.30;0.10;;;;;;;3.44;99.92;100121.63;5038204;28;20486;-57
2023/11/26 00:48:44;;;;;;;3.53;3.43;;;;;;;3.35;100.00;100119.88;5037028;28;20468;-56
2023/11/26 00:51:18;;;;;;;0.20;0.10;;;;;;;3.59;100.00;100112.81;5023728;28;20476;-57
2023/11/26 00:53:45;;;;;;;0.30;0.13;;;;;;;3.51;100.00;100123.34;5024169;28;20451;-57
2023/11/26 00:56:11;;;;;;;0.20;0.20;;;;;;;3.47;99.97;100121.59;5020324;28;20479;-57
2023/11/26 00:58:38;;;;;;;0.30;0.20;;;;;;;3.61;100.00;100116.31;5031962;28;20462;-57
2023/11/26 01:01:04;;;;;;;0.30;0.20;;;;;;;3.58;100.00;100111.06;5020321;28;20503;-57
2023/11/26 01:03:31;;;;;;;0.30;0.10;;;;;;;3.61;100.00;100106.66;5021676;28;20890;-57
2023/11/26 01:05:57;;;;;;;0.30;0.10;;;;;;;3.56;100.00;100104.06;5025531;28;20480;-57
2023/11/26 01:08:24;;;;;;;0.30;0.20;;;;;;;3.53;100.00;100109.31;5028674;28;20488;-57
2023/11/26 01:10:51;;;;;;;0.30;0.10;;;;;;;3.48;100.00;100118.09;5024707;28;20477;-57
2023/11/26 01:13:17;;;;;;;0.20;0.10;;;;;;;3.48;100.00;100116.34;5020236;28;20507;-57
2023/11/26 01:15:44;;;;;;;0.20;0.10;;;;;;;3.53;100.00;100117.19;5024433;28;20862;-57
2023/11/26 01:18:10;;;;;;;0.20;0.20;;;;;;;3.63;100.00;100117.16;5024191;28;20447;-57
2023/11/26 01:20:37;;;;;;;0.20;0.10;;;;;;;3.65;100.00;100121.53;5035163;28;20487;-54
2023/11/26 01:23:04;;;;;;;0.20;0.20;;;;;;;3.79;100.00;100113.59;5031126;28;20559;-55
2023/11/26 01:25:30;;;;;;;0.20;0.13;;;;;;;3.70;100.00;100126.78;5025017;28;20462;-55
2023/11/26 01:27:56;;;;;;;0.30;0.20;;;;;;;3.71;100.00;100129.41;5018240;28;20456;-54
2023/11/26 01:30:24;;;;;;;0.20;0.10;;;;;;;3.63;100.00;100122.44;5024900;28;20471;-55
2023/11/26 01:32:51;;;;;;;0.20;0.20;;;;;;;3.67;100.00;100121.53;5020775;28;20495;-54
2023/11/26 01:35:17;;;;;;;0.20;0.20;;;;;;;3.64;100.00;100126.81;5022829;28;20492;-55
2023/11/26 01:37:43;;;;;;;0.20;0.17;;;;;;;3.81;100.00;100135.50;5027802;28;20818;-54
2023/11/26 01:40:11;;;;;;;0.20;0.10;;;;;;;3.86;100.00;100133.75;5025274;28;20577;-55
2023/11/26 01:42:38;;;;;;;0.20;0.10;;;;;;;3.98;100.00;100130.19;5028288;28;20544;-55
2023/11/26 01:45:04;;;;;;;0.20;0.10;;;;;;;3.92;100.00;100133.72;5025343;28;20534;-56
2023/11/26 01:47:31;;;;;;;0.23;0.10;;;;;;;3.98;100.00;100136.31;5047544;28;20448;-54
2023/11/26 01:49:58;;;;;;;0.20;0.10;;;;;;;3.97;100.00;100144.19;5033829;28;20562;-54
2023/11/26 01:52:24;;;;;;;0.20;0.10;;;;;;;3.92;100.00;100141.59;5020937;28;20481;-55
2023/11/26 01:54:51;;;;;;;0.20;0.10;;;;;;;3.97;100.00;100146.81;5022651;28;20492;-55
2023/11/26 01:57:19;;;;;;;0.20;0.10;;;;;;;4.09;100.00;100146.78;5027129;28;20448;-54
2023/11/26 01:59:45;;;;;;;0.20;0.10;;;;;;;4.32;100.00;100147.53;5025918;28;20921;-55
2023/11/26 02:02:12;;;;;;;0.20;0.17;;;;;;;4.34;100.00;100145.75;5020627;28;20451;-54
2023/11/26 02:04:38;;;;;;;0.30;0.10;;;;;;;4.58;100.00;100139.47;5022038;28;20449;-55
2023/11/26 02:07:05;;;;;;;0.20;0.10;;;;;;;4.70;100.00;100141.16;5027200;28;20448;-55
2023/11/26 02:09:32;;;;;;;0.20;0.10;;;;;;;4.66;100.00;100142.03;5025677;28;20458;-54
2023/11/26 02:11:59;;;;;;;0.20;0.10;;;;;;;4.81;100.00;100146.34;5019553;28;20447;-54
2023/11/26 02:14:25;;;;;;;0.20;0.10;;;;;;;4.69;100.00;100148.19;5020941;28;20548;-54
2023/11/26 02:16:51;;;;;;;0.20;0.20;;;;;;;4.68;100.00;100158.72;5027281;28;20452;-55
2023/11/26 02:19:26;;;;;;;0.30;0.13;;;;;;;4.59;100.00;100156.16;5028829;28;20820;-54
2023/11/26 02:21:52;;;;;;;0.20;0.10;;;;;;;4.48;100.00;100158.84;5027080;28;20526;-56
2023/11/26 02:24:26;;;;;;;0.30;0.20;;;;;;;4.35;100.00;100162.44;5026937;28;20547;-56
2023/11/26 02:26:53;;;;;;;0.20;0.10;;;;;;;4.66;100.00;100158.75;5015212;28;20530;-55
2023/11/26 02:29:20;;;;;;;0.30;0.20;;;;;;;4.80;100.00;100161.28;5020058;28;20488;-56
2023/11/26 02:31:46;;;;;;;0.30;0.10;;;;;;;4.72;100.00;100157.81;5025689;28;20452;-54
2023/11/26 02:34:13;;;;;;;0.30;0.20;;;;;;;4.76;100.00;100159.53;5026704;28;20967;-55
2023/11/26 02:36:39;;;;;;;0.20;0.10;;;;;;;4.80;100.00;100161.28;5020660;28;20449;-55
2023/11/26 02:39:06;;;;;;;0.20;0.20;;;;;;;4.62;100.00;100154.38;5028697;28;20463;-55
2023/11/26 02:41:32;;;;;;;0.30;0.20;;;;;;;4.63;100.00;100163.13;5020868;28;20839;-54
2023/11/26 02:43:59;;;;;;;0.20;0.10;;;;;;;4.63;100.00;100157.88;5019844;28;20456;-55
2023/11/26 02:46:26;;;;;;;0.20;0.10;;;;;;;4.51;100.00;100155.31;5041516;28;20447;-57
2023/11/26 02:48:52;;;;;;;0.20;0.10;;;;;;;4.46;100.00;100153.59;5037416;28;20454;-54
2023/11/26 02:51:19;;;;;;;0.30;0.10;;;;;;;4.40;100.00;100151.00;5024441;28;20479;-55
2023/11/26 02:53:46;;;;;;;0.20;0.13;;;;;;;4.42;100.00;100161.53;5025534;28;20460;-55
2023/11/26 02:56:13;;;;;;;0.30;0.10;;;;;;;4.45;100.00;100154.47;5022332;28;20491;-54
2023/11/26 02:58:44;;;;;;;0.20;0.10;;;;;;;4.52;100.00;100159.69;5019467;28;20455;-55
2023/11/26 03:01:21;;;;;;;0.20;0.10;;;;;;;4.32;100.00;100165.06;5022839;28;20542;-55
2023/11/26 03:03:48;;;;;;;0.20;0.10;;;;;;;4.18;100.00;100170.41;5026107;28;20483;-54
2023/11/26 03:06:15;;;;;;;0.20;0.10;;;;;;;4.40;100.00;100166.78;5017954;28;20456;-55
2023/11/26 03:08:43;;;;;;;0.20;0.10;;;;;;;4.48;100.00;100161.47;5026224;28;20453;-55
2023/11/26 03:13:55;;;;;;;0.30;0.10;;;;;;;4.38;100.00;100170.28;5021115;28;20538;-55
2023/11/26 03:16:24;;;;;;;0.30;0.10;;;;;;;4.23;100.00;100167.75;5018908;28;20492;-54
2023/11/26 03:18:52;;;;;;;0.20;0.10;;;;;;;4.20;100.00;100170.41;5032192;28;20456;-55
2023/11/26 03:21:26;;;;;;;0.20;0.10;;;;;;;4.15;100.00;100170.44;5018874;28;20491;-55
2023/11/26 03:23:53;;;;;;;0.20;0.10;;;;;;;4.31;100.00;100172.09;5022425;28;20536;-55
2023/11/26 03:26:26;;;;;;;0.30;0.13;;;;;;;4.36;100.00;100159.78;5024748;28;20448;-55
2023/11/26 03:28:54;;;;;;;0.20;0.13;;;;;;;4.42;100.00;100162.41;5021494;28;20453;-55
2023/11/26 03:31:23;;;;;;;0.30;0.20;;;;;;;3.95;100.00;100173.13;5027745;28;21001;-55
2023/11/26 03:33:52;;;;;;;0.20;0.13;;;;;;;4.08;100.00;100166.06;5020494;28;20456;-55
2023/11/26 03:36:18;;;;;;;0.20;0.10;;;;;;;4.29;100.00;100179.13;5025761;28;20559;-55
2023/11/26 03:38:45;;;;;;;0.20;0.10;;;;;;;4.32;100.00;100175.59;5024671;28;20495;-56
2023/11/26 03:41:11;;;;;;;0.20;0.10;;;;;;;4.29;100.00;100178.25;5018609;28;20546;-55
2023/11/26 03:43:38;;;;;;;0.20;0.20;;;;;;;4.42;100.00;100175.56;5018995;28;20503;-55
2023/11/26 03:46:04;;;;;;;0.20;0.10;;;;;;;4.43;100.00;100182.56;5036926;28;20522;-55
2023/11/26 03:48:31;;;;;;;0.20;0.20;;;;;;;4.35;100.00;100186.97;5039894;28;20881;-55
2023/11/26 03:50:58;;;;;;;0.20;0.13;;;;;;;4.45;100.00;100187.81;5026115;28;20475;-55
2023/11/26 03:53:24;;;;;;;0.20;0.10;;;;;;;4.35;100.00;100184.34;5024060;28;20552;-55
2023/11/26 03:55:51;;;;;;;0.20;0.13;;;;;;;4.30;100.00;100191.41;5018439;28;20491;-55
2023/11/26 03:58:17;;;;;;;0.20;0.10;;;;;;;4.24;100.00;100191.41;5019477;28;20456;-54
2023/11/26 04:00:44;;;;;;;0.20;0.10;;;;;;;4.14;100.00;100193.22;5025034;28;20473;-55
2023/11/26 04:03:10;;;;;;;0.20;0.10;;;;;;;4.16;100.00;100193.22;5024422;28;20456;-55
2023/11/26 04:05:37;;;;;;;0.20;0.20;;;;;;;4.15;100.00;100202.00;5018330;28;20539;-55
2023/11/26 04:08:03;;;;;;;0.20;0.10;;;;;;;4.18;100.00;100201.97;5019660;28;20455;-55
2023/11/26 04:10:30;;;;;;;0.20;0.10;;;;;;;4.14;100.00;100201.13;5025488;28;20531;-55
2023/11/26 04:13:06;;;;;;;0.20;0.10;;;;;;;4.29;100.00;100202.81;5025316;28;20545;-54
2023/11/26 04:15:33;;;;;;;0.20;0.10;;;;;;;4.36;100.00;100195.75;5012385;28;20493;-55
2023/11/26 04:17:59;;;;;;;0.20;0.17;;;;;;;4.35;100.00;100201.88;5025647;28;20474;-54
2023/11/26 04:20:28;;;;;;;0.20;0.10;;;;;;;4.29;100.00;100194.03;5031220;28;20495;-55
2023/11/26 04:22:54;;;;;;;0.20;0.20;;;;;;;4.28;100.00;100197.56;5018141;28;20869;-55
2023/11/26 04:25:21;;;;;;;0.20;0.20;;;;;;;4.23;100.00;100194.94;5023717;28;20926;-55
2023/11/26 04:27:47;;;;;;;0.20;0.10;;;;;;;4.25;100.00;100195.81;5025658;28;21011;-55
2023/11/26 04:30:14;;;;;;;0.23;0.10;;;;;;;4.45;100.00;100199.22;5024006;28;20838;-55
2023/11/26 04:32:40;;;;;;;0.20;0.20;;;;;;;4.42;100.00;100204.50;5024871;28;20548;-55
2023/11/26 04:35:07;;;;;;;0.20;0.20;;;;;;;4.32;100.00;100196.66;5019422;28;20584;-54
2023/11/26 04:37:34;;;;;;;0.20;0.20;;;;;;;4.32;100.00;100194.03;5020658;28;20453;-55
2023/11/26 04:40:01;;;;;;;0.20;0.20;;;;;;;4.33;100.00;100196.63;5027285;28;20469;-55
2023/11/26 04:42:27;;;;;;;0.20;0.10;;;;;;;4.35;100.00;100186.97;5028869;28;20546;-55
2023/11/26 04:44:53;;;;;;;0.20;0.10;;;;;;;4.38;100.00;100193.97;5031179;28;20456;-55
2023/11/26 04:47:20;;;;;;;0.20;0.10;;;;;;;4.31;100.00;100190.50;5048375;28;20504;-54
2023/11/26 04:49:46;;;;;;;0.20;0.10;;;;;;;4.23;100.00;100187.03;5034837;28;20471;-55
2023/11/26 04:52:13;;;;;;;0.20;0.10;;;;;;;4.25;100.00;100195.81;5021939;28;20895;-55
2023/11/26 04:54:39;;;;;;;0.30;0.10;;;;;;;4.24;100.00;100206.31;5025956;28;20481;-55
2023/11/26 04:57:06;;;;;;;0.20;0.10;;;;;;;4.09;100.00;100202.00;5028252;28;21063;-54
2023/11/26 04:59:35;;;;;;;0.20;0.20;;;;;;;4.04;100.00;100206.41;5024614;28;20462;-54
2023/11/26 05:02:06;;;;;;;0.20;0.10;;;;;;;4.18;100.00;100214.25;5050540;28;20942;-54
2023/11/26 05:04:33;;;;;;;0.20;0.10;;;;;;;4.20;100.00;100209.84;5025791;28;20476;-54
2023/11/26 05:06:59;;;;;;;0.20;0.10;;;;;;;4.28;100.00;100211.59;5021913;28;21042;-55
2023/11/26 05:09:26;;;;;;;0.20;0.20;;;;;;;4.22;100.00;100213.34;5024648;28;20888;-54
2023/11/26 05:11:52;;;;;;;0.20;0.10;;;;;;;4.20;100.00;100221.25;5028311;28;20484;-54
2023/11/26 05:14:19;;;;;;;0.20;0.10;;;;;;;4.15;100.00;100223.91;5025822;28;20452;-54
2023/11/26 05:16:45;;;;;;;0.20;0.10;;;;;;;4.19;100.00;100222.13;5021394;28;20519;-54
2023/11/26 05:19:12;;;;;;;0.20;0.10;;;;;;;4.14;100.00;100223.91;5034706;28;20483;-54
2023/11/26 05:21:39;;;;;;;0.20;0.13;;;;;;;4.15;100.00;100225.66;5030219;28;20508;-54
2023/11/26 05:24:06;;;;;;;0.20;0.20;;;;;;;4.08;100.00;100226.56;5026094;28;20788;-54
2023/11/26 05:26:33;;;;;;;0.20;0.20;;;;;;;3.99;100.00;100230.09;5027996;28;20453;-54
2023/11/26 05:29:00;;;;;;;0.20;0.10;;;;;;;4.05;100.00;100239.72;5026047;28;20461;-54
2023/11/26 05:31:26;;;;;;;0.20;0.10;;;;;;;4.16;100.00;100243.19;5021259;28;20475;-54
2023/11/26 05:33:53;;;;;;;0.20;0.20;;;;;;;4.03;100.00;100246.75;5022734;28;20448;-54
2023/11/26 05:36:20;;;;;;;0.20;0.20;;;;;;;4.23;100.00;100257.19;5028144;28;20882;-55
2023/11/26 05:38:47;;;;;;;0.20;0.10;;;;;;;4.18;100.00;100254.59;5026580;28;20803;-55
2023/11/26 05:41:14;;;;;;;0.20;0.10;;;;;;;4.24;100.00;100251.91;5020973;28;20839;-54
2023/11/26 05:43:41;;;;;;;0.20;0.10;;;;;;;4.30;100.00;100258.94;5022263;28;20575;-54
2023/11/26 05:46:07;;;;;;;0.20;0.10;;;;;;;4.37;100.00;100264.16;5039205;28;20518;-54
2023/11/26 05:48:34;;;;;;;0.20;0.20;;;;;;;4.46;100.00;100268.50;5040041;28;20498;-54
2023/11/26 05:51:02;;;;;;;0.20;0.13;;;;;;;4.29;100.00;100265.06;5032498;28;20521;-54
2023/11/26 05:53:32;;;;;;;0.20;0.20;;;;;;;4.53;100.00;100269.38;5020746;28;20452;-54
2023/11/26 05:55:59;;;;;;;0.20;0.20;;;;;;;4.71;100.00;100262.25;5027107;28;20484;-53
2023/11/26 05:58:25;;;;;;;0.20;0.10;;;;;;;4.81;100.00;100257.81;5027458;28;20513;-54
2023/11/26 06:00:53;;;;;;;0.20;0.10;;;;;;;4.87;100.00;100265.66;5020643;28;20976;-54
2023/11/26 06:03:21;;;;;;;0.20;0.10;;;;;;;4.83;100.00;100258.69;5030085;28;20536;-54
2023/11/26 06:05:48;;;;;;;0.20;0.10;;;;;;;4.89;100.00;100253.38;5017578;28;20453;-54
2023/11/26 06:08:14;;;;;;;0.20;0.10;;;;;;;4.86;100.00;100260.41;5023148;28;21184;-53
2023/11/26 06:10:41;;;;;;;0.20;0.20;;;;;;;4.81;100.00;100259.56;5021754;28;20486;-53
2023/11/26 06:13:08;;;;;;;0.20;0.10;;;;;;;4.84;100.00;100263.06;5029198;28;20555;-53
2023/11/26 06:15:35;;;;;;;0.20;0.20;;;;;;;4.44;100.00;100272.91;5022145;28;21003;-54
2023/11/26 06:18:01;;;;;;;0.20;0.10;;;;;;;4.52;100.00;100272.84;5023568;28;20940;-54
2023/11/26 06:20:28;;;;;;;0.20;0.10;;;;;;;4.53;100.00;100279.91;5033408;28;20490;-54
2023/11/26 06:22:54;;;;;;;0.20;0.20;;;;;;;4.47;100.00;100280.78;5020237;28;20455;-53
2023/11/26 06:25:21;;;;;;;0.20;0.20;;;;;;;4.34;100.00;100271.19;5029756;28;20444;-54
2023/11/26 06:27:47;;;;;;;0.30;0.10;;;;;;;4.15;100.00;100270.38;5027501;28;20491;-55
2023/11/26 06:30:14;;;;;;;0.30;0.20;;;;;;;4.08;100.00;100274.75;5021548;28;20551;-53
2023/11/26 06:32:42;;;;;;;0.20;0.13;;;;;;;3.93;100.00;100274.81;5022382;28;20510;-53
2023/11/26 06:35:08;;;;;;;0.20;0.10;;;;;;;3.86;100.00;100270.44;5017860;28;20456;-53
2023/11/26 06:37:36;;;;;;;0.20;0.20;;;;;;;3.82;100.00;100274.81;5015724;28;20488;-53
2023/11/26 06:40:04;;;;;;;0.20;0.20;;;;;;;3.75;100.00;100270.47;5024281;28;20538;-54
2023/11/26 06:42:32;;;;;;;0.20;0.10;;;;;;;3.77;100.00;100267.81;5027597;28;20452;-53
2023/11/26 06:44:58;;;;;;;0.20;0.17;;;;;;;3.88;100.00;100280.97;5028186;28;20451;-53
2023/11/26 06:47:25;;;;;;;0.20;0.10;;;;;;;3.81;100.00;100275.69;5030360;28;20535;-53
2023/11/26 06:49:52;;;;;;;0.20;0.10;;;;;;;3.77;100.00;100283.59;5023098;28;20533;-54
2023/11/26 06:52:19;;;;;;;0.20;0.20;;;;;;;3.70;100.00;100292.34;5019707;28;20459;-53
2023/11/26 06:54:45;;;;;;;0.20;0.10;;;;;;;3.70;100.00;100295.88;5019317;28;20461;-54
2023/11/26 06:57:12;;;;;;;0.20;0.10;;;;;;;3.75;100.00;100295.88;5026085;28;20924;-56
2023/11/26 06:59:38;;;;;;;0.20;0.20;;;;;;;3.80;100.00;100294.09;5022804;28;20530;-54
2023/11/26 07:02:08;;;;;;;0.20;0.20;;;;;;;3.80;100.00;100299.38;5018821;28;20458;-54
2023/11/26 07:04:35;;;;;;;0.30;0.10;;;;;;;3.76;100.00;100290.63;5022196;28;20531;-56
2023/11/26 07:07:03;;;;;;;0.20;0.10;;;;;;;3.79;100.00;100297.63;5026136;28;20540;-54
2023/11/26 07:09:29;;;;;;;0.60;0.60;;;;;;;3.81;100.00;100288.84;5018204;28;20897;-54
2023/11/26 07:11:56;;;;;;;0.30;0.10;;;;;;;3.74;100.00;100292.38;5027439;28;20861;-56
2023/11/26 07:14:22;;;;;;;0.20;0.10;;;;;;;3.82;100.00;100287.09;5022791;28;20548;-54
2023/11/26 07:16:52;;;;;;;0.23;0.20;;;;;;;3.92;100.00;100290.59;5021117;28;20484;-54
2023/11/26 07:19:20;;;;;;;0.20;0.20;;;;;;;3.97;100.00;100286.19;5026568;28;20514;-54
2023/11/26 07:21:46;;;;;;;0.20;0.10;;;;;;;4.01;100.00;100290.59;5028262;28;20898;-58
2023/11/26 07:24:13;;;;;;;0.20;0.10;;;;;;;4.05;100.00;100287.94;5020582;28;20864;-58
2023/11/26 07:26:39;;;;;;;0.20;0.10;;;;;;;3.83;100.00;100289.72;5025690;28;20543;-58
2023/11/26 07:29:05;;;;;;;0.20;0.20;;;;;;;3.94;100.00;100275.69;5020241;28;20457;-58
2023/11/26 07:31:34;;;;;;;0.20;0.20;;;;;;;4.15;100.00;100279.16;5026583;28;20467;-58
2023/11/26 07:34:01;;;;;;;0.20;0.10;;;;;;;4.27;100.00;100285.25;5026604;28;20451;-58
2023/11/26 07:36:27;;;;;;;0.20;0.10;;;;;;;4.24;100.00;100290.50;5028354;28;20483;-58
2023/11/26 07:38:55;;;;;;;0.20;0.10;;;;;;;4.26;100.00;100291.41;5029379;28;20452;-58
2023/11/26 07:41:22;;;;;;;0.20;0.20;;;;;;;4.30;100.00;100286.13;5028854;28;20486;-57
2023/11/26 07:43:49;;;;;;;0.20;0.10;;;;;;;4.35;100.00;100293.97;5030813;28;20456;-58
2023/11/26 07:46:16;;;;;;;0.20;0.20;;;;;;;4.46;100.00;100293.06;5027270;28;20513;-57
2023/11/26 07:48:45;;;;;;;0.20;0.10;;;;;;;4.57;100.00;100293.03;5026521;28;20455;-58
2023/11/26 07:51:12;;;;;;;0.20;0.10;;;;;;;4.59;100.00;100307.06;5026427;28;20562;-58
2023/11/26 07:53:40;;;;;;;0.20;0.20;;;;;;;4.68;100.00;100303.53;5018770;28;20460;-58
2023/11/26 07:56:07;;;;;;;0.30;0.20;;;;;;;4.79;100.00;100312.22;5027587;28;20487;-58
2023/11/26 07:58:34;;;;;;;0.20;0.10;;;;;;;4.86;100.00;100303.41;5018643;28;20536;-57
2023/11/26 08:01:05;;;;;;;0.20;0.20;;;;;;;4.91;100.00;100312.16;5023874;28;20487;-58
2023/11/26 08:03:32;;;;;;;0.30;0.20;;;;;;;5.09;100.00;100313.84;5024866;28;20626;-57
2023/11/26 08:06:03;;;;;;;0.30;0.20;;;;;;;5.24;100.00;100307.59;5026690;28;20494;-57
2023/11/26 08:08:36;;;;;;;0.20;0.20;;;;;;;5.33;100.00;100305.75;5030657;28;20479;-57
2023/11/26 08:11:05;;;;;;;0.20;0.10;;;;;;;5.44;100.00;100305.69;5029379;28;20983;-57
2023/11/26 08:13:37;;;;;;;0.30;0.10;;;;;;;5.52;100.00;100305.63;5022013;28;20488;-56
2023/11/26 08:16:07;;;;;;;0.30;0.20;;;;;;;5.51;100.00;100302.13;5027822;28;20487;-57
2023/11/26 08:18:39;;;;;;;0.30;0.20;;;;;;;5.56;100.00;100305.59;5028875;28;20456;-57
2023/11/26 08:21:06;;;;;;;0.30;0.20;;;;;;;5.58;100.00;100301.16;5031056;28;20479;-57
2023/11/26 08:23:44;;;;;;;0.30;0.20;;;;;;;5.72;100.00;100302.81;5028010;28;20452;-57
2023/11/26 08:26:13;;;;;;;0.30;0.10;;;;;;;5.79;100.00;100300.13;5030480;28;20455;-57
2023/11/26 08:28:41;;;;;;;0.30;0.20;;;;;;;5.87;100.00;100297.41;5021560;28;20467;-57
2023/11/26 08:31:07;;;;;;;0.30;0.20;;;;;;;5.87;100.00;100300.03;5016690;28;20484;-57
2023/11/26 08:33:41;;;;;;;0.30;0.10;;;;;;;5.92;100.00;100306.19;5025001;28;20491;-56
2023/11/26 08:36:08;;;;;;;0.30;0.20;;;;;;;5.98;100.00;100305.25;5023359;28;20552;-57
2023/11/26 08:38:38;;;;;;;0.30;0.20;;;;;;;6.06;100.00;100313.97;5027096;28;20458;-56
2023/11/26 08:41:10;;;;;;;0.30;0.20;;;;;;;5.98;100.00;100319.31;5023669;28;21044;-56
2023/11/26 08:43:41;;;;;;;0.30;0.20;;;;;;;6.06;100.00;100321.91;5023177;28;20534;-56
2023/11/26 08:46:09;;;;;;;0.30;0.20;;;;;;;6.00;100.00;100325.44;5032544;28;20457;-56
2023/11/26 08:48:39;;;;;;;0.30;0.20;;;;;;;6.07;100.00;100329.78;5030060;28;20483;-56
2023/11/26 08:51:06;;;;;;;0.30;0.20;;;;;;;6.13;100.00;100327.06;5022764;28;20482;-57
2023/11/26 08:53:33;;;;;;;0.30;0.20;;;;;;;6.18;100.00;100327.94;5023743;28;20451;-56
2023/11/26 08:56:00;;;;;;;0.30;0.10;;;;;;;6.28;100.00;100328.69;5018809;28;20519;-56
2023/11/26 08:58:27;;;;;;;0.30;0.20;;;;;;;6.29;100.00;100329.56;5022530;28;20463;-56
2023/11/26 09:00:53;;;;;;;0.30;0.20;;;;;;;6.15;100.00;100317.38;5019763;28;20550;-56
2023/11/26 09:03:22;;;;;;;0.30;0.20;;;;;;;6.26;100.00;100319.91;5017984;28;20488;-56
2023/11/26 09:05:49;;;;;;;0.30;0.20;;;;;;;6.44;100.00;100326.75;5027440;28;20459;-56
2023/11/26 09:08:19;;;;;;;0.30;0.20;;;;;;;6.42;99.98;100323.25;5021619;28;20451;-56
2023/11/26 09:10:46;;;;;;;0.30;0.20;;;;;;;6.44;99.73;100322.38;5013227;28;20993;-56
2023/11/26 09:13:12;;;;;;;0.30;0.20;;;;;;;6.39;98.95;100326.81;5024292;28;20500;-56
2023/11/26 09:15:41;;;;;;;0.30;0.20;;;;;;;6.51;99.74;100320.53;5018643;28;20460;-57
2023/11/26 09:18:08;;;;;;;0.30;0.20;;;;;;;6.61;99.33;100329.22;5029821;28;20549;-57
2023/11/26 09:20:35;;;;;;;0.27;0.20;;;;;;;6.65;98.82;100330.91;5021628;28;20629;-57
2023/11/26 09:23:03;;;;;;;0.30;0.20;;;;;;;6.75;99.25;100341.38;5021295;28;20444;-57
2023/11/26 09:25:29;;;;;;;0.30;0.20;;;;;;;6.80;98.95;100330.72;5017358;28;20479;-57
2023/11/26 09:27:56;;;;;;;0.30;0.20;;;;;;;6.80;99.03;100342.16;5028175;28;20455;-57
2023/11/26 09:30:22;;;;;;;0.30;0.20;;;;;;;6.87;99.01;100334.19;5029569;28;20472;-56
2023/11/26 09:32:49;;;;;;;0.30;0.10;;;;;;;6.95;98.93;100327.88;5036820;28;20435;-56
2023/11/26 09:35:16;;;;;;;0.30;0.20;;;;;;;7.00;98.19;100331.38;5041881;28;20451;-57
2023/11/26 09:37:42;;;;;;;0.30;0.20;;;;;;;6.97;99.05;100341.06;5030452;28;20571;-56
2023/11/26 09:40:09;;;;;;;0.30;0.20;;;;;;;7.04;98.01;100340.13;5025634;28;20463;-56
2023/11/26 09:42:36;;;;;;;0.30;0.20;;;;;;;7.03;97.18;100335.72;5021489;28;20510;-56
2023/11/26 09:45:04;;;;;;;0.30;0.20;;;;;;;7.16;97.92;100334.66;5025713;28;20456;-56
2023/11/26 09:47:31;;;;;;;0.30;0.20;;;;;;;7.20;98.30;100335.50;5030087;28;20499;-56
2023/11/26 09:49:58;;;;;;;0.30;0.20;;;;;;;7.25;96.11;100333.63;5026269;28;20550;-55
2023/11/26 09:52:25;;;;;;;0.30;0.20;;;;;;;7.27;97.17;100326.59;5020607;28;20529;-56
2023/11/26 09:54:55;;;;;;;0.30;0.20;;;;;;;7.36;97.30;100322.00;5023610;28;20449;-56
2023/11/26 09:57:21;;;;;;;0.30;0.20;;;;;;;7.39;97.17;100319.31;5027629;28;20837;-57
2023/11/26 09:59:48;;;;;;;0.30;0.20;;;;;;;7.32;96.95;100317.69;5025441;28;20471;-57
2023/11/26 10:02:14;;;;;;;0.30;0.20;;;;;;;7.38;97.24;100314.06;5028031;28;20450;-55
2023/11/26 10:04:52;;;;;;;0.30;0.20;;;;;;;7.46;95.08;100312.19;5033001;28;20508;-58
2023/11/26 10:07:32;;;;;;;0.30;0.20;;;;;;;7.27;96.36;100314.25;5026126;28;20551;-58
2023/11/26 10:10:09;;;;;;;0.30;0.20;;;;;;;7.17;97.62;100309.09;5023921;28;20484;-58
2023/11/26 10:12:52;;;;;;;0.30;0.20;;;;;;;7.36;96.35;100306.16;5024601;28;20510;-57
2023/11/26 10:15:21;;;;;;;0.30;0.20;;;;;;;7.43;96.67;100301.66;5027121;28;20535;-57
2023/11/26 10:18:03;;;;;;;0.30;0.20;;;;;;;7.48;96.33;100299.81;5026003;28;20658;-58
2023/11/26 10:20:35;;;;;;;0.30;0.20;;;;;;;7.62;96.02;100296.94;5028327;28;20577;-57
2023/11/26 10:23:03;;;;;;;0.30;0.20;;;;;;;7.37;95.86;100302.59;5019904;28;20484;-57
2023/11/26 10:25:29;;;;;;;0.30;0.20;;;;;;;7.35;96.55;100288.53;5020932;28;20453;-58
2023/11/26 10:27:56;;;;;;;0.30;0.20;;;;;;;7.32;96.57;100291.25;5026629;28;20448;-57
2023/11/26 10:30:28;;;;;;;0.30;0.10;;;;;;;7.46;96.30;100287.50;5023215;28;20897;-58
2023/11/26 10:32:56;;;;;;;0.30;0.20;;;;;;;7.50;95.73;100279.50;5020408;28;20455;-58
2023/11/26 10:35:23;;;;;;;0.30;0.20;;;;;;;7.54;95.95;100281.22;5022249;28;20456;-58
2023/11/26 10:37:51;;;;;;;0.30;0.20;;;;;;;7.57;94.94;100278.50;5026651;28;20484;-58
2023/11/26 10:40:18;;;;;;;0.30;0.20;;;;;;;7.69;94.42;100274.78;5024649;28;20555;-58
2023/11/26 10:42:45;;;;;;;0.30;0.20;;;;;;;7.65;94.02;100273.06;5023478;28;20539;-58
2023/11/26 10:45:11;;;;;;;0.30;0.20;;;;;;;7.56;95.00;100274.13;5024720;28;20527;-58
2023/11/26 10:47:40;;;;;;;0.30;0.20;;;;;;;7.56;94.81;100266.19;5027608;28;20869;-58
2023/11/26 10:50:09;;;;;;;0.30;0.20;;;;;;;7.61;95.31;100274.03;5024609;28;20476;-58
2023/11/26 10:53:03;;;;;;;0.30;0.20;;;;;;;7.68;95.40;100265.97;5028203;28;20829;-58
2023/11/26 10:55:38;;;;;;;0.30;0.20;;;;;;;7.61;94.44;100264.31;5019834;28;20531;-57
2023/11/26 10:58:15;;;;;;;0.30;0.20;;;;;;;7.63;94.63;100266.94;5030050;28;20593;-57
2023/11/26 11:00:47;;;;;;;0.30;0.20;;;;;;;7.61;94.50;100260.81;5019534;28;20463;-57
2023/11/26 11:03:14;;;;;;;0.30;0.20;;;;;;;7.60;94.63;100265.22;5032798;28;20448;-59
2023/11/26 11:05:41;;;;;;;0.30;0.20;;;;;;;7.54;95.24;100259.16;5031914;28;20490;-58
2023/11/26 11:08:08;;;;;;;0.30;0.20;;;;;;;7.57;95.71;100270.56;5031063;28;20451;-57
2023/11/26 11:10:51;;;;;;;0.30;0.20;;;;;;;7.53;95.15;100254.75;5026747;28;20582;-57
2023/11/26 11:13:20;;;;;;;0.30;0.20;;;;;;;7.73;94.18;100253.53;5024378;28;20452;-58
2023/11/26 11:15:47;;;;;;;0.30;0.20;;;;;;;7.65;94.94;100251.91;5016656;28;20510;-57
2023/11/26 11:18:31;;;;;;;0.30;0.20;;;;;;;7.62;95.35;100247.53;5029238;28;20491;-58
2023/11/26 11:21:01;;;;;;;0.30;0.20;;;;;;;7.69;95.45;100251.84;5024895;28;20892;-58
2023/11/26 11:23:38;;;;;;;0.30;0.20;;;;;;;7.59;95.59;100254.66;5025752;28;20457;-56
2023/11/26 11:26:07;;;;;;;0.30;0.20;;;;;;;7.61;95.69;100248.44;5026481;28;20458;-57
2023/11/26 11:28:55;;;;;;;0.30;0.20;;;;;;;7.63;96.10;100249.28;5031438;28;20552;-57
2023/11/26 11:31:43;;;;;;;0.30;0.20;;;;;;;7.67;95.75;100252.75;5030515;28;20478;-58
2023/11/26 11:34:12;;;;;;;0.30;0.20;;;;;;;7.73;95.86;100248.25;5027430;28;20455;-58